sensor_id;sensor_type;location;lat;lon;timestamp;P1;durP1;ratioP1;P2;durP2;ratioP2
11590;SDS011;5851;54.050;9.974;2023-12-20T00:00:59;10.37;;;2.33;;
11590;SDS011;5851;54.050;9.974;2023-12-20T00:03:27;7.47;;;2.57;;
11590;SDS011;5851;54.050;9.974;2023-12-20T00:05:54;12.00;;;2.63;;
11590;SDS011;5851;54.050;9.974;2023-12-20T00:08:21;8.70;;;2.50;;
11590;SDS011;5851;54.050;9.974;2023-12-20T00:10:48;10.63;;;2.63;;
11590;SDS011;5851;54.050;9.974;2023-12-20T00:13:15;10.70;;;2.70;;
11590;SDS011;5851;54.050;9.974;2023-12-20T00:15:42;10.50;;;2.90;;
11590;SDS011;5851;54.050;9.974;2023-12-20T00:18:09;7.63;;;2.40;;
11590;SDS011;5851;54.050;9.974;2023-12-20T00:20:37;10.87;;;2.80;;
11590;SDS011;5851;54.050;9.974;2023-12-20T00:23:04;10.57;;;3.23;;
11590;SDS011;5851;54.050;9.974;2023-12-20T00:25:31;10.97;;;2.93;;
11590;SDS011;5851;54.050;9.974;2023-12-20T00:27:58;12.07;;;3.03;;
11590;SDS011;5851;54.050;9.974;2023-12-20T00:30:25;8.57;;;3.00;;
11590;SDS011;5851;54.050;9.974;2023-12-20T00:32:51;5.13;;;2.30;;
11590;SDS011;5851;54.050;9.974;2023-12-20T00:35:18;8.43;;;2.50;;
11590;SDS011;5851;54.050;9.974;2023-12-20T00:37:47;6.20;;;2.77;;
11590;SDS011;5851;54.050;9.974;2023-12-20T00:40:13;9.10;;;2.73;;
11590;SDS011;5851;54.050;9.974;2023-12-20T00:42:40;9.47;;;2.57;;
11590;SDS011;5851;54.050;9.974;2023-12-20T00:45:07;7.60;;;2.30;;
11590;SDS011;5851;54.050;9.974;2023-12-20T00:47:35;11.07;;;2.33;;
11590;SDS011;5851;54.050;9.974;2023-12-20T00:50:02;8.10;;;2.10;;
11590;SDS011;5851;54.050;9.974;2023-12-20T00:52:29;12.03;;;2.13;;
11590;SDS011;5851;54.050;9.974;2023-12-20T00:54:57;12.97;;;2.50;;
11590;SDS011;5851;54.050;9.974;2023-12-20T00:57:24;10.97;;;2.60;;
11590;SDS011;5851;54.050;9.974;2023-12-20T00:59:51;10.53;;;2.30;;
11590;SDS011;5851;54.050;9.974;2023-12-20T01:02:17;7.20;;;2.80;;
11590;SDS011;5851;54.050;9.974;2023-12-20T01:04:44;10.23;;;2.80;;
11590;SDS011;5851;54.050;9.974;2023-12-20T01:07:11;10.60;;;2.63;;
11590;SDS011;5851;54.050;9.974;2023-12-20T01:09:38;13.10;;;2.37;;
11590;SDS011;5851;54.050;9.974;2023-12-20T01:12:06;14.13;;;2.20;;
11590;SDS011;5851;54.050;9.974;2023-12-20T01:14:33;8.37;;;2.17;;
11590;SDS011;5851;54.050;9.974;2023-12-20T01:17:01;8.30;;;2.37;;
11590;SDS011;5851;54.050;9.974;2023-12-20T01:19:28;7.20;;;2.60;;
11590;SDS011;5851;54.050;9.974;2023-12-20T01:21:55;8.93;;;3.03;;
11590;SDS011;5851;54.050;9.974;2023-12-20T01:24:22;12.17;;;2.40;;
11590;SDS011;5851;54.050;9.974;2023-12-20T01:26:48;11.97;;;2.57;;
11590;SDS011;5851;54.050;9.974;2023-12-20T01:29:17;9.83;;;2.77;;
11590;SDS011;5851;54.050;9.974;2023-12-20T01:31:44;8.57;;;2.37;;
11590;SDS011;5851;54.050;9.974;2023-12-20T01:34:11;9.93;;;2.67;;
11590;SDS011;5851;54.050;9.974;2023-12-20T01:36:38;5.63;;;2.47;;
11590;SDS011;5851;54.050;9.974;2023-12-20T01:39:05;10.63;;;2.03;;
11590;SDS011;5851;54.050;9.974;2023-12-20T01:41:32;7.07;;;2.57;;
11590;SDS011;5851;54.050;9.974;2023-12-20T01:43:59;8.73;;;1.93;;
11590;SDS011;5851;54.050;9.974;2023-12-20T01:46:27;9.60;;;2.50;;
11590;SDS011;5851;54.050;9.974;2023-12-20T01:48:54;10.70;;;2.47;;
11590;SDS011;5851;54.050;9.974;2023-12-20T01:51:21;12.90;;;2.73;;
11590;SDS011;5851;54.050;9.974;2023-12-20T01:53:48;6.60;;;2.13;;
11590;SDS011;5851;54.050;9.974;2023-12-20T01:56:15;12.40;;;2.33;;
11590;SDS011;5851;54.050;9.974;2023-12-20T01:58:43;4.40;;;2.00;;
11590;SDS011;5851;54.050;9.974;2023-12-20T02:01:12;8.30;;;2.20;;
11590;SDS011;5851;54.050;9.974;2023-12-20T02:03:41;6.30;;;2.00;;
11590;SDS011;5851;54.050;9.974;2023-12-20T02:06:08;13.40;;;2.00;;
11590;SDS011;5851;54.050;9.974;2023-12-20T02:08:35;12.50;;;2.53;;
11590;SDS011;5851;54.050;9.974;2023-12-20T02:11:03;9.13;;;2.00;;
11590;SDS011;5851;54.050;9.974;2023-12-20T02:13:30;8.07;;;1.97;;
11590;SDS011;5851;54.050;9.974;2023-12-20T02:15:57;7.13;;;2.20;;
11590;SDS011;5851;54.050;9.974;2023-12-20T02:18:24;13.13;;;2.97;;
11590;SDS011;5851;54.050;9.974;2023-12-20T02:20:52;12.83;;;2.30;;
11590;SDS011;5851;54.050;9.974;2023-12-20T02:23:21;6.67;;;2.33;;
11590;SDS011;5851;54.050;9.974;2023-12-20T02:25:48;5.17;;;2.00;;
11590;SDS011;5851;54.050;9.974;2023-12-20T02:28:15;10.60;;;3.13;;
11590;SDS011;5851;54.050;9.974;2023-12-20T02:30:42;5.67;;;2.27;;
11590;SDS011;5851;54.050;9.974;2023-12-20T02:33:10;9.00;;;2.40;;
11590;SDS011;5851;54.050;9.974;2023-12-20T02:35:40;8.20;;;2.30;;
11590;SDS011;5851;54.050;9.974;2023-12-20T02:38:07;9.17;;;2.70;;
11590;SDS011;5851;54.050;9.974;2023-12-20T02:40:35;4.93;;;1.73;;
11590;SDS011;5851;54.050;9.974;2023-12-20T02:43:02;5.07;;;1.80;;
11590;SDS011;5851;54.050;9.974;2023-12-20T02:45:29;6.13;;;2.43;;
11590;SDS011;5851;54.050;9.974;2023-12-20T02:47:56;5.70;;;1.80;;
11590;SDS011;5851;54.050;9.974;2023-12-20T02:50:23;7.70;;;2.03;;
11590;SDS011;5851;54.050;9.974;2023-12-20T02:52:50;8.57;;;2.30;;
11590;SDS011;5851;54.050;9.974;2023-12-20T02:55:17;9.97;;;2.10;;
11590;SDS011;5851;54.050;9.974;2023-12-20T02:57:45;6.97;;;2.40;;
11590;SDS011;5851;54.050;9.974;2023-12-20T03:00:12;5.80;;;1.93;;
11590;SDS011;5851;54.050;9.974;2023-12-20T03:02:39;7.43;;;2.60;;
11590;SDS011;5851;54.050;9.974;2023-12-20T03:05:07;8.97;;;2.07;;
11590;SDS011;5851;54.050;9.974;2023-12-20T03:07:33;3.90;;;1.80;;
11590;SDS011;5851;54.050;9.974;2023-12-20T03:10:00;8.23;;;2.10;;
11590;SDS011;5851;54.050;9.974;2023-12-20T03:12:28;6.53;;;2.20;;
11590;SDS011;5851;54.050;9.974;2023-12-20T03:14:56;7.07;;;2.20;;
11590;SDS011;5851;54.050;9.974;2023-12-20T03:17:23;5.40;;;1.90;;
11590;SDS011;5851;54.050;9.974;2023-12-20T03:19:50;5.87;;;2.10;;
11590;SDS011;5851;54.050;9.974;2023-12-20T03:22:17;6.60;;;2.10;;
11590;SDS011;5851;54.050;9.974;2023-12-20T03:24:43;3.70;;;1.90;;
11590;SDS011;5851;54.050;9.974;2023-12-20T03:27:10;8.00;;;2.10;;
11590;SDS011;5851;54.050;9.974;2023-12-20T03:29:37;5.67;;;2.43;;
11590;SDS011;5851;54.050;9.974;2023-12-20T03:32:06;8.33;;;1.90;;
11590;SDS011;5851;54.050;9.974;2023-12-20T03:34:33;6.63;;;2.00;;
11590;SDS011;5851;54.050;9.974;2023-12-20T03:37:00;6.87;;;1.90;;
11590;SDS011;5851;54.050;9.974;2023-12-20T03:39:27;6.00;;;2.40;;
11590;SDS011;5851;54.050;9.974;2023-12-20T03:41:54;7.70;;;2.40;;
11590;SDS011;5851;54.050;9.974;2023-12-20T03:44:21;3.80;;;1.90;;
11590;SDS011;5851;54.050;9.974;2023-12-20T03:46:48;4.00;;;2.30;;
11590;SDS011;5851;54.050;9.974;2023-12-20T03:49:16;7.30;;;2.43;;
11590;SDS011;5851;54.050;9.974;2023-12-20T03:51:43;8.77;;;2.13;;
11590;SDS011;5851;54.050;9.974;2023-12-20T03:54:10;6.37;;;2.47;;
11590;SDS011;5851;54.050;9.974;2023-12-20T03:56:37;6.73;;;2.40;;
11590;SDS011;5851;54.050;9.974;2023-12-20T03:59:04;8.43;;;1.97;;
11590;SDS011;5851;54.050;9.974;2023-12-20T04:01:30;5.77;;;1.90;;
11590;SDS011;5851;54.050;9.974;2023-12-20T04:03:57;4.43;;;2.10;;
11590;SDS011;5851;54.050;9.974;2023-12-20T04:06:26;4.57;;;2.00;;
11590;SDS011;5851;54.050;9.974;2023-12-20T04:08:53;5.30;;;1.70;;
11590;SDS011;5851;54.050;9.974;2023-12-20T04:11:20;6.37;;;2.13;;
11590;SDS011;5851;54.050;9.974;2023-12-20T04:13:46;5.00;;;2.13;;
11590;SDS011;5851;54.050;9.974;2023-12-20T04:16:13;5.07;;;1.93;;
11590;SDS011;5851;54.050;9.974;2023-12-20T04:18:40;9.00;;;2.10;;
11590;SDS011;5851;54.050;9.974;2023-12-20T04:21:07;6.87;;;2.47;;
11590;SDS011;5851;54.050;9.974;2023-12-20T04:23:35;7.27;;;2.30;;
11590;SDS011;5851;54.050;9.974;2023-12-20T04:26:02;4.83;;;1.93;;
11590;SDS011;5851;54.050;9.974;2023-12-20T04:28:29;7.30;;;2.47;;
11590;SDS011;5851;54.050;9.974;2023-12-20T04:30:56;5.23;;;1.87;;
11590;SDS011;5851;54.050;9.974;2023-12-20T04:33:23;7.13;;;1.87;;
11590;SDS011;5851;54.050;9.974;2023-12-20T04:35:50;7.77;;;2.30;;
11590;SDS011;5851;54.050;9.974;2023-12-20T04:38:17;5.93;;;2.10;;
11590;SDS011;5851;54.050;9.974;2023-12-20T04:40:45;7.47;;;2.40;;
11590;SDS011;5851;54.050;9.974;2023-12-20T04:43:13;6.50;;;2.40;;
11590;SDS011;5851;54.050;9.974;2023-12-20T04:45:40;7.90;;;1.80;;
11590;SDS011;5851;54.050;9.974;2023-12-20T04:48:07;6.97;;;2.70;;
11590;SDS011;5851;54.050;9.974;2023-12-20T04:50:34;7.33;;;2.10;;
11590;SDS011;5851;54.050;9.974;2023-12-20T04:53:01;6.43;;;2.50;;
11590;SDS011;5851;54.050;9.974;2023-12-20T04:55:27;6.83;;;2.07;;
11590;SDS011;5851;54.050;9.974;2023-12-20T04:57:56;9.13;;;2.70;;
11590;SDS011;5851;54.050;9.974;2023-12-20T05:00:23;7.70;;;2.93;;
11590;SDS011;5851;54.050;9.974;2023-12-20T05:02:50;9.67;;;2.67;;
11590;SDS011;5851;54.050;9.974;2023-12-20T05:05:17;4.13;;;2.00;;
11590;SDS011;5851;54.050;9.974;2023-12-20T05:07:44;6.97;;;2.00;;
11590;SDS011;5851;54.050;9.974;2023-12-20T05:10:11;5.73;;;2.10;;
11590;SDS011;5851;54.050;9.974;2023-12-20T05:12:38;8.17;;;2.53;;
11590;SDS011;5851;54.050;9.974;2023-12-20T05:15:07;6.43;;;2.20;;
11590;SDS011;5851;54.050;9.974;2023-12-20T05:17:34;4.17;;;2.10;;
11590;SDS011;5851;54.050;9.974;2023-12-20T05:20:01;7.30;;;2.20;;
11590;SDS011;5851;54.050;9.974;2023-12-20T05:22:28;5.90;;;2.10;;
11590;SDS011;5851;54.050;9.974;2023-12-20T05:24:55;5.50;;;2.03;;
11590;SDS011;5851;54.050;9.974;2023-12-20T05:27:22;5.73;;;2.10;;
11590;SDS011;5851;54.050;9.974;2023-12-20T05:29:48;4.57;;;1.70;;
11590;SDS011;5851;54.050;9.974;2023-12-20T05:32:17;7.03;;;2.00;;
11590;SDS011;5851;54.050;9.974;2023-12-20T05:34:44;5.33;;;2.17;;
11590;SDS011;5851;54.050;9.974;2023-12-20T05:37:10;6.10;;;2.10;;
11590;SDS011;5851;54.050;9.974;2023-12-20T05:39:37;5.70;;;1.73;;
11590;SDS011;5851;54.050;9.974;2023-12-20T05:42:04;7.03;;;2.33;;
11590;SDS011;5851;54.050;9.974;2023-12-20T05:44:31;7.27;;;2.40;;
11590;SDS011;5851;54.050;9.974;2023-12-20T05:46:58;10.17;;;2.70;;
11590;SDS011;5851;54.050;9.974;2023-12-20T05:49:26;7.43;;;2.70;;
11590;SDS011;5851;54.050;9.974;2023-12-20T05:51:53;10.63;;;3.00;;
11590;SDS011;5851;54.050;9.974;2023-12-20T05:54:20;7.30;;;2.47;;
11590;SDS011;5851;54.050;9.974;2023-12-20T05:56:47;7.93;;;2.90;;
11590;SDS011;5851;54.050;9.974;2023-12-20T05:59:14;13.37;;;3.40;;
11590;SDS011;5851;54.050;9.974;2023-12-20T06:01:40;10.67;;;3.67;;
11590;SDS011;5851;54.050;9.974;2023-12-20T06:04:07;8.67;;;3.33;;
11590;SDS011;5851;54.050;9.974;2023-12-20T06:06:39;10.23;;;3.10;;
11590;SDS011;5851;54.050;9.974;2023-12-20T06:09:07;10.77;;;3.13;;
11590;SDS011;5851;54.050;9.974;2023-12-20T06:11:34;11.27;;;3.20;;
11590;SDS011;5851;54.050;9.974;2023-12-20T06:14:01;8.60;;;2.90;;
11590;SDS011;5851;54.050;9.974;2023-12-20T06:16:27;10.40;;;3.50;;
11590;SDS011;5851;54.050;9.974;2023-12-20T06:18:54;7.17;;;2.43;;
11590;SDS011;5851;54.050;9.974;2023-12-20T06:21:21;12.60;;;2.83;;
11590;SDS011;5851;54.050;9.974;2023-12-20T06:23:49;8.00;;;2.97;;
11590;SDS011;5851;54.050;9.974;2023-12-20T06:26:16;9.67;;;3.10;;
11590;SDS011;5851;54.050;9.974;2023-12-20T06:28:43;10.03;;;3.33;;
11590;SDS011;5851;54.050;9.974;2023-12-20T06:31:10;9.93;;;3.37;;
11590;SDS011;5851;54.050;9.974;2023-12-20T06:33:37;7.47;;;3.03;;
11590;SDS011;5851;54.050;9.974;2023-12-20T06:36:05;10.13;;;3.20;;
11590;SDS011;5851;54.050;9.974;2023-12-20T06:38:32;11.33;;;2.97;;
11590;SDS011;5851;54.050;9.974;2023-12-20T06:41:01;12.20;;;3.33;;
11590;SDS011;5851;54.050;9.974;2023-12-20T06:43:28;13.10;;;3.00;;
11590;SDS011;5851;54.050;9.974;2023-12-20T06:45:55;12.47;;;4.10;;
11590;SDS011;5851;54.050;9.974;2023-12-20T06:48:22;9.13;;;3.07;;
11590;SDS011;5851;54.050;9.974;2023-12-20T06:50:49;13.30;;;3.90;;
11590;SDS011;5851;54.050;9.974;2023-12-20T06:53:16;10.33;;;3.63;;
11590;SDS011;5851;54.050;9.974;2023-12-20T06:55:43;11.60;;;3.63;;
11590;SDS011;5851;54.050;9.974;2023-12-20T06:58:11;9.40;;;3.10;;
11590;SDS011;5851;54.050;9.974;2023-12-20T07:00:38;7.63;;;2.97;;
11590;SDS011;5851;54.050;9.974;2023-12-20T07:03:05;14.20;;;3.53;;
11590;SDS011;5851;54.050;9.974;2023-12-20T07:05:32;11.67;;;3.63;;
11590;SDS011;5851;54.050;9.974;2023-12-20T07:07:59;13.37;;;3.87;;
11590;SDS011;5851;54.050;9.974;2023-12-20T07:10:26;12.93;;;3.33;;
11590;SDS011;5851;54.050;9.974;2023-12-20T07:12:52;12.70;;;3.43;;
11590;SDS011;5851;54.050;9.974;2023-12-20T07:15:21;10.97;;;3.67;;
11590;SDS011;5851;54.050;9.974;2023-12-20T07:17:48;12.17;;;3.23;;
11590;SDS011;5851;54.050;9.974;2023-12-20T07:20:15;7.97;;;2.80;;
11590;SDS011;5851;54.050;9.974;2023-12-20T07:22:42;6.47;;;2.40;;
11590;SDS011;5851;54.050;9.974;2023-12-20T07:25:09;9.87;;;3.27;;
11590;SDS011;5851;54.050;9.974;2023-12-20T07:27:36;4.97;;;2.20;;
11590;SDS011;5851;54.050;9.974;2023-12-20T07:30:03;8.83;;;3.00;;
11590;SDS011;5851;54.050;9.974;2023-12-20T07:32:32;9.10;;;3.10;;
11590;SDS011;5851;54.050;9.974;2023-12-20T07:34:59;8.57;;;3.17;;
11590;SDS011;5851;54.050;9.974;2023-12-20T07:37:26;12.20;;;3.53;;
11590;SDS011;5851;54.050;9.974;2023-12-20T07:39:53;8.00;;;2.93;;
11590;SDS011;5851;54.050;9.974;2023-12-20T07:42:20;6.97;;;2.60;;
11590;SDS011;5851;54.050;9.974;2023-12-20T07:44:47;12.23;;;3.47;;
11590;SDS011;5851;54.050;9.974;2023-12-20T07:47:14;8.97;;;3.00;;
11590;SDS011;5851;54.050;9.974;2023-12-20T07:49:45;13.40;;;3.23;;
11590;SDS011;5851;54.050;9.974;2023-12-20T07:52:12;9.40;;;3.73;;
11590;SDS011;5851;54.050;9.974;2023-12-20T07:54:39;9.57;;;3.47;;
11590;SDS011;5851;54.050;9.974;2023-12-20T07:57:07;12.37;;;3.47;;
11590;SDS011;5851;54.050;9.974;2023-12-20T07:59:37;15.40;;;4.57;;
11590;SDS011;5851;54.050;9.974;2023-12-20T08:02:04;10.50;;;3.53;;
11590;SDS011;5851;54.050;9.974;2023-12-20T08:04:32;11.30;;;3.10;;
11590;SDS011;5851;54.050;9.974;2023-12-20T08:07:00;14.07;;;3.77;;
11590;SDS011;5851;54.050;9.974;2023-12-20T08:09:27;11.50;;;4.10;;
11590;SDS011;5851;54.050;9.974;2023-12-20T08:11:54;9.73;;;3.43;;
11590;SDS011;5851;54.050;9.974;2023-12-20T08:14:20;12.07;;;2.97;;
11590;SDS011;5851;54.050;9.974;2023-12-20T08:16:47;8.70;;;3.43;;
11590;SDS011;5851;54.050;9.974;2023-12-20T08:19:14;13.33;;;3.37;;
11590;SDS011;5851;54.050;9.974;2023-12-20T08:21:42;9.37;;;3.60;;
11590;SDS011;5851;54.050;9.974;2023-12-20T08:24:13;11.07;;;2.50;;
11590;SDS011;5851;54.050;9.974;2023-12-20T08:27:22;5.90;;;2.37;;
11590;SDS011;5851;54.050;9.974;2023-12-20T08:30:22;10.27;;;3.10;;
11590;SDS011;5851;54.050;9.974;2023-12-20T08:33:25;11.83;;;3.77;;
11590;SDS011;5851;54.050;9.974;2023-12-20T08:35:55;14.67;;;3.80;;
11590;SDS011;5851;54.050;9.974;2023-12-20T08:39:02;7.00;;;2.60;;
11590;SDS011;5851;54.050;9.974;2023-12-20T08:41:34;9.47;;;2.90;;
11590;SDS011;5851;54.050;9.974;2023-12-20T08:44:03;10.70;;;3.80;;
11590;SDS011;5851;54.050;9.974;2023-12-20T08:46:31;7.90;;;3.20;;
11590;SDS011;5851;54.050;9.974;2023-12-20T08:49:00;6.97;;;2.37;;
11590;SDS011;5851;54.050;9.974;2023-12-20T08:51:27;4.90;;;2.63;;
11590;SDS011;5851;54.050;9.974;2023-12-20T08:53:54;3.80;;;2.00;;
11590;SDS011;5851;54.050;9.974;2023-12-20T08:56:21;3.17;;;2.10;;
11590;SDS011;5851;54.050;9.974;2023-12-20T08:58:50;19.20;;;7.50;;
11590;SDS011;5851;54.050;9.974;2023-12-20T09:01:18;8.07;;;2.25;;
11590;SDS011;5851;54.050;9.974;2023-12-20T09:03:45;5.17;;;2.20;;
11590;SDS011;5851;54.050;9.974;2023-12-20T09:06:13;5.65;;;2.10;;
11590;SDS011;5851;54.050;9.974;2023-12-20T09:08:40;6.43;;;2.30;;
11590;SDS011;5851;54.050;9.974;2023-12-20T09:11:07;5.18;;;1.83;;
11590;SDS011;5851;54.050;9.974;2023-12-20T09:13:35;10.00;;;4.80;;
11590;SDS011;5851;54.050;9.974;2023-12-20T09:16:03;6.22;;;2.20;;
11590;SDS011;5851;54.050;9.974;2023-12-20T10:20:01;7.63;;;2.00;;
11590;SDS011;5851;54.050;9.974;2023-12-20T10:22:33;6.90;;;1.90;;
11590;SDS011;5851;54.050;9.974;2023-12-20T10:25:01;4.40;;;2.13;;
11590;SDS011;5851;54.050;9.974;2023-12-20T10:27:28;6.70;;;2.27;;
11590;SDS011;5851;54.050;9.974;2023-12-20T10:29:55;4.70;;;1.50;;
11590;SDS011;5851;54.050;9.974;2023-12-20T10:32:25;7.10;;;2.40;;
11590;SDS011;5851;54.050;9.974;2023-12-20T10:34:53;6.00;;;2.10;;
11590;SDS011;5851;54.050;9.974;2023-12-20T10:37:22;8.70;;;2.40;;
11590;SDS011;5851;54.050;9.974;2023-12-20T10:39:49;6.70;;;1.83;;
11590;SDS011;5851;54.050;9.974;2023-12-20T10:42:21;10.40;;;2.30;;
11590;SDS011;5851;54.050;9.974;2023-12-20T10:44:48;6.30;;;1.90;;
11590;SDS011;5851;54.050;9.974;2023-12-20T10:47:16;4.57;;;1.87;;
11590;SDS011;5851;54.050;9.974;2023-12-20T10:49:43;8.40;;;2.37;;
11590;SDS011;5851;54.050;9.974;2023-12-20T10:52:12;4.70;;;1.73;;
11590;SDS011;5851;54.050;9.974;2023-12-20T10:54:40;8.77;;;2.20;;
11590;SDS011;5851;54.050;9.974;2023-12-20T10:57:07;5.67;;;1.67;;
11590;SDS011;5851;54.050;9.974;2023-12-20T10:59:35;9.33;;;2.20;;
11590;SDS011;5851;54.050;9.974;2023-12-20T11:02:03;6.23;;;2.00;;
11590;SDS011;5851;54.050;9.974;2023-12-20T11:04:35;3.47;;;1.77;;
11590;SDS011;5851;54.050;9.974;2023-12-20T11:07:13;5.60;;;1.80;;
11590;SDS011;5851;54.050;9.974;2023-12-20T11:09:49;3.73;;;1.80;;
11590;SDS011;5851;54.050;9.974;2023-12-20T11:12:28;3.30;;;1.60;;
11590;SDS011;5851;54.050;9.974;2023-12-20T11:15:05;4.50;;;1.60;;
11590;SDS011;5851;54.050;9.974;2023-12-20T11:17:33;10.13;;;2.50;;
11590;SDS011;5851;54.050;9.974;2023-12-20T11:20:03;7.10;;;1.80;;
11590;SDS011;5851;54.050;9.974;2023-12-20T11:22:32;2.67;;;1.27;;
11590;SDS011;5851;54.050;9.974;2023-12-20T11:25:04;6.00;;;1.80;;
11590;SDS011;5851;54.050;9.974;2023-12-20T11:27:33;8.13;;;2.07;;
11590;SDS011;5851;54.050;9.974;2023-12-20T11:30:02;7.43;;;1.83;;
11590;SDS011;5851;54.050;9.974;2023-12-20T11:32:33;4.83;;;1.80;;
11590;SDS011;5851;54.050;9.974;2023-12-20T11:35:01;6.63;;;1.90;;
11590;SDS011;5851;54.050;9.974;2023-12-20T11:37:44;3.90;;;2.00;;
11590;SDS011;5851;54.050;9.974;2023-12-20T11:40:14;4.13;;;1.83;;
11590;SDS011;5851;54.050;9.974;2023-12-20T11:42:43;6.47;;;2.47;;
11590;SDS011;5851;54.050;9.974;2023-12-20T11:45:11;4.03;;;1.70;;
11590;SDS011;5851;54.050;9.974;2023-12-20T11:47:42;5.57;;;2.00;;
11590;SDS011;5851;54.050;9.974;2023-12-20T11:50:11;5.70;;;2.10;;
11590;SDS011;5851;54.050;9.974;2023-12-20T11:52:38;11.23;;;2.40;;
11590;SDS011;5851;54.050;9.974;2023-12-20T11:55:06;7.23;;;2.20;;
11590;SDS011;5851;54.050;9.974;2023-12-20T11:57:35;7.43;;;2.38;;
11590;SDS011;5851;54.050;9.974;2023-12-20T12:00:02;10.63;;;2.83;;
11590;SDS011;5851;54.050;9.974;2023-12-20T12:02:31;9.35;;;2.60;;
11590;SDS011;5851;54.050;9.974;2023-12-20T12:04:59;8.18;;;2.35;;
11590;SDS011;5851;54.050;9.974;2023-12-20T12:07:26;11.82;;;2.65;;
11590;SDS011;5851;54.050;9.974;2023-12-20T12:09:53;10.60;;;2.63;;
11590;SDS011;5851;54.050;9.974;2023-12-20T12:16:21;11.55;;;2.75;;
11590;SDS011;5851;54.050;9.974;2023-12-20T12:18:54;11.55;;;2.72;;
11590;SDS011;5851;54.050;9.974;2023-12-20T12:21:22;12.75;;;2.80;;
11590;SDS011;5851;54.050;9.974;2023-12-20T12:23:49;11.67;;;2.70;;
11590;SDS011;5851;54.050;9.974;2023-12-20T12:26:18;9.25;;;2.83;;
11590;SDS011;5851;54.050;9.974;2023-12-20T12:54:18;11.95;;;3.65;;
11590;SDS011;5851;54.050;9.974;2023-12-20T13:03:20;14.20;;;3.65;;
11590;SDS011;5851;54.050;9.974;2023-12-20T13:05:52;15.52;;;3.83;;
11590;SDS011;5851;54.050;9.974;2023-12-20T13:09:19;18.30;;;6.18;;
11590;SDS011;5851;54.050;9.974;2023-12-20T13:26:18;14.98;;;4.38;;
11590;SDS011;5851;54.050;9.974;2023-12-20T13:31:30;18.42;;;4.18;;
11590;SDS011;5851;54.050;9.974;2023-12-20T13:33:57;15.25;;;4.28;;
11590;SDS011;5851;54.050;9.974;2023-12-20T13:36:25;15.93;;;4.40;;
11590;SDS011;5851;54.050;9.974;2023-12-20T13:38:54;14.40;;;4.10;;
11590;SDS011;5851;54.050;9.974;2023-12-20T13:48:32;15.77;;;4.80;;
11590;SDS011;5851;54.050;9.974;2023-12-20T13:50:59;16.63;;;4.60;;
11590;SDS011;5851;54.050;9.974;2023-12-20T13:53:27;16.83;;;6.10;;
11590;SDS011;5851;54.050;9.974;2023-12-20T13:55:54;15.60;;;4.53;;
11590;SDS011;5851;54.050;9.974;2023-12-20T13:58:22;19.00;;;4.57;;
11590;SDS011;5851;54.050;9.974;2023-12-20T14:00:49;15.75;;;4.50;;
11590;SDS011;5851;54.050;9.974;2023-12-20T14:03:16;14.82;;;4.03;;
11590;SDS011;5851;54.050;9.974;2023-12-20T14:05:46;13.63;;;4.20;;
11590;SDS011;5851;54.050;9.974;2023-12-20T14:08:13;14.38;;;4.40;;
11590;SDS011;5851;54.050;9.974;2023-12-20T14:10:40;17.42;;;4.70;;
11590;SDS011;5851;54.050;9.974;2023-12-20T14:13:07;13.80;;;4.70;;
11590;SDS011;5851;54.050;9.974;2023-12-20T14:15:34;15.10;;;4.63;;
11590;SDS011;5851;54.050;9.974;2023-12-20T14:18:02;13.27;;;4.63;;
11590;SDS011;5851;54.050;9.974;2023-12-20T14:20:31;13.40;;;4.93;;
11590;SDS011;5851;54.050;9.974;2023-12-20T14:23:01;25.98;;;9.57;;
11590;SDS011;5851;54.050;9.974;2023-12-20T14:25:27;13.20;;;4.10;;
11590;SDS011;5851;54.050;9.974;2023-12-20T14:27:54;12.20;;;4.30;;
11590;SDS011;5851;54.050;9.974;2023-12-20T14:30:23;14.80;;;4.90;;
11590;SDS011;5851;54.050;9.974;2023-12-20T14:32:50;12.23;;;4.55;;
11590;SDS011;5851;54.050;9.974;2023-12-20T14:35:17;8.40;;;4.47;;
11590;SDS011;5851;54.050;9.974;2023-12-20T14:37:45;12.88;;;5.10;;
11590;SDS011;5851;54.050;9.974;2023-12-20T14:40:13;13.40;;;5.22;;
11590;SDS011;5851;54.050;9.974;2023-12-20T14:42:44;10.77;;;3.90;;
11590;SDS011;5851;54.050;9.974;2023-12-20T14:45:11;14.07;;;6.07;;
11590;SDS011;5851;54.050;9.974;2023-12-20T14:47:39;14.73;;;4.63;;
11590;SDS011;5851;54.050;9.974;2023-12-20T14:50:07;9.73;;;4.00;;
11590;SDS011;5851;54.050;9.974;2023-12-20T14:52:35;9.98;;;4.13;;
11590;SDS011;5851;54.050;9.974;2023-12-20T14:55:02;13.17;;;4.20;;
11590;SDS011;5851;54.050;9.974;2023-12-20T14:57:32;12.23;;;4.25;;
11590;SDS011;5851;54.050;9.974;2023-12-20T14:59:58;12.20;;;4.50;;
11590;SDS011;5851;54.050;9.974;2023-12-20T15:02:25;12.13;;;5.00;;
11590;SDS011;5851;54.050;9.974;2023-12-20T15:04:52;12.25;;;5.18;;
11590;SDS011;5851;54.050;9.974;2023-12-20T15:07:19;11.50;;;4.32;;
11590;SDS011;5851;54.050;9.974;2023-12-20T15:09:47;15.02;;;5.10;;
11590;SDS011;5851;54.050;9.974;2023-12-20T15:12:14;12.18;;;4.72;;
11590;SDS011;5851;54.050;9.974;2023-12-20T15:14:42;10.32;;;4.53;;
11590;SDS011;5851;54.050;9.974;2023-12-20T15:17:09;12.82;;;4.10;;
11590;SDS011;5851;54.050;9.974;2023-12-20T15:19:36;11.88;;;4.38;;
11590;SDS011;5851;54.050;9.974;2023-12-20T15:22:03;12.98;;;4.63;;
11590;SDS011;5851;54.050;9.974;2023-12-20T15:24:30;12.13;;;4.53;;
11590;SDS011;5851;54.050;9.974;2023-12-20T15:27:03;13.38;;;4.95;;
11590;SDS011;5851;54.050;9.974;2023-12-20T15:29:30;14.68;;;5.03;;
11590;SDS011;5851;54.050;9.974;2023-12-20T15:31:58;12.93;;;4.78;;
11590;SDS011;5851;54.050;9.974;2023-12-20T15:34:25;10.57;;;4.47;;
11590;SDS011;5851;54.050;9.974;2023-12-20T15:36:52;11.93;;;4.88;;
11590;SDS011;5851;54.050;9.974;2023-12-20T15:39:20;11.90;;;4.40;;
11590;SDS011;5851;54.050;9.974;2023-12-20T15:41:47;14.02;;;4.70;;
11590;SDS011;5851;54.050;9.974;2023-12-20T15:44:14;13.02;;;4.82;;
11590;SDS011;5851;54.050;9.974;2023-12-20T15:46:41;12.25;;;4.57;;
11590;SDS011;5851;54.050;9.974;2023-12-20T15:49:09;12.30;;;4.68;;
11590;SDS011;5851;54.050;9.974;2023-12-20T15:51:37;14.00;;;5.00;;
11590;SDS011;5851;54.050;9.974;2023-12-20T15:54:04;13.20;;;4.65;;
11590;SDS011;5851;54.050;9.974;2023-12-20T15:56:33;10.38;;;4.13;;
11590;SDS011;5851;54.050;9.974;2023-12-20T15:59:01;12.20;;;4.43;;
11590;SDS011;5851;54.050;9.974;2023-12-20T16:01:28;15.65;;;4.40;;
11590;SDS011;5851;54.050;9.974;2023-12-20T16:03:56;18.50;;;5.90;;
11590;SDS011;5851;54.050;9.974;2023-12-20T16:06:25;12.70;;;4.50;;
11590;SDS011;5851;54.050;9.974;2023-12-20T16:08:52;16.43;;;4.30;;
11590;SDS011;5851;54.050;9.974;2023-12-20T16:11:19;12.73;;;4.05;;
11590;SDS011;5851;54.050;9.974;2023-12-20T16:13:46;10.60;;;4.38;;
11590;SDS011;5851;54.050;9.974;2023-12-20T16:16:13;9.43;;;3.95;;
11590;SDS011;5851;54.050;9.974;2023-12-20T16:18:40;14.25;;;4.25;;
11590;SDS011;5851;54.050;9.974;2023-12-20T16:21:07;13.05;;;4.20;;
11590;SDS011;5851;54.050;9.974;2023-12-20T16:23:35;13.27;;;4.60;;
11590;SDS011;5851;54.050;9.974;2023-12-20T16:26:02;11.93;;;4.72;;
11590;SDS011;5851;54.050;9.974;2023-12-20T16:28:29;13.68;;;4.43;;
11590;SDS011;5851;54.050;9.974;2023-12-20T16:30:56;16.38;;;4.28;;
11590;SDS011;5851;54.050;9.974;2023-12-20T16:33:23;14.00;;;4.60;;
11590;SDS011;5851;54.050;9.974;2023-12-20T16:35:50;14.73;;;4.78;;
11590;SDS011;5851;54.050;9.974;2023-12-20T16:38:16;11.93;;;4.75;;
11590;SDS011;5851;54.050;9.974;2023-12-20T16:40:45;14.77;;;4.30;;
11590;SDS011;5851;54.050;9.974;2023-12-20T16:43:12;12.15;;;4.00;;
11590;SDS011;5851;54.050;9.974;2023-12-20T16:45:38;13.30;;;3.87;;
11590;SDS011;5851;54.050;9.974;2023-12-20T16:48:05;12.93;;;4.20;;
11590;SDS011;5851;54.050;9.974;2023-12-20T16:50:33;11.02;;;4.63;;
11590;SDS011;5851;54.050;9.974;2023-12-20T16:53:00;10.75;;;4.20;;
11590;SDS011;5851;54.050;9.974;2023-12-20T16:55:26;12.53;;;4.47;;
11590;SDS011;5851;54.050;9.974;2023-12-20T16:57:55;11.07;;;4.10;;
11590;SDS011;5851;54.050;9.974;2023-12-20T17:00:22;11.95;;;4.25;;
11590;SDS011;5851;54.050;9.974;2023-12-20T17:02:51;13.95;;;4.35;;